sensor_id;sensor_type;location;lat;lon;timestamp;P1;durP1;ratioP1;P2;durP2;ratioP2
4409;SDS011;2218;51.408;7.208;2023-01-01T00:01:43;1.10;;;1.00;;
4409;SDS011;2218;51.408;7.208;2023-01-01T00:04:11;1.20;;;1.10;;
4409;SDS011;2218;51.408;7.208;2023-01-01T00:06:41;1.10;;;1.00;;
4409;SDS011;2218;51.408;7.208;2023-01-01T00:09:10;1.40;;;1.30;;
4409;SDS011;2218;51.408;7.208;2023-01-01T00:11:55;1.43;;;1.33;;
4409;SDS011;2218;51.408;7.208;2023-01-01T00:14:22;1.10;;;1.00;;
4409;SDS011;2218;51.408;7.208;2023-01-01T00:16:49;1.13;;;1.03;;
4409;SDS011;2218;51.408;7.208;2023-01-01T00:19:16;1.30;;;1.20;;
4409;SDS011;2218;51.408;7.208;2023-01-01T00:21:44;1.60;;;1.20;;
4409;SDS011;2218;51.408;7.208;2023-01-01T00:24:11;1.07;;;1.03;;
4409;SDS011;2218;51.408;7.208;2023-01-01T00:26:38;1.50;;;1.40;;
4409;SDS011;2218;51.408;7.208;2023-01-01T00:29:05;1.60;;;1.50;;
4409;SDS011;2218;51.408;7.208;2023-01-01T00:31:33;1.90;;;1.80;;
4409;SDS011;2218;51.408;7.208;2023-01-01T00:34:00;1.77;;;1.67;;
4409;SDS011;2218;51.408;7.208;2023-01-01T00:36:29;1.60;;;1.50;;
4409;SDS011;2218;51.408;7.208;2023-01-01T00:38:57;1.83;;;1.73;;
4409;SDS011;2218;51.408;7.208;2023-01-01T00:41:24;1.57;;;1.47;;
4409;SDS011;2218;51.408;7.208;2023-01-01T00:43:51;1.83;;;1.73;;
4409;SDS011;2218;51.408;7.208;2023-01-01T00:46:18;1.80;;;1.60;;
4409;SDS011;2218;51.408;7.208;2023-01-01T00:48:45;1.70;;;1.60;;
4409;SDS011;2218;51.408;7.208;2023-01-01T00:51:12;1.93;;;1.83;;
4409;SDS011;2218;51.408;7.208;2023-01-01T00:53:39;1.90;;;1.80;;
4409;SDS011;2218;51.408;7.208;2023-01-01T00:56:07;2.10;;;1.90;;
4409;SDS011;2218;51.408;7.208;2023-01-01T00:58:34;2.17;;;2.03;;
4409;SDS011;2218;51.408;7.208;2023-01-01T01:01:01;1.60;;;1.50;;
4409;SDS011;2218;51.408;7.208;2023-01-01T01:03:29;2.10;;;2.00;;
4409;SDS011;2218;51.408;7.208;2023-01-01T01:05:56;3.10;;;2.20;;
4409;SDS011;2218;51.408;7.208;2023-01-01T01:08:33;2.00;;;1.90;;
4409;SDS011;2218;51.408;7.208;2023-01-01T01:11:04;2.00;;;1.90;;
4409;SDS011;2218;51.408;7.208;2023-01-01T01:13:34;2.07;;;1.90;;
4409;SDS011;2218;51.408;7.208;2023-01-01T01:16:06;2.00;;;1.90;;
4409;SDS011;2218;51.408;7.208;2023-01-01T01:18:40;2.50;;;2.30;;
4409;SDS011;2218;51.408;7.208;2023-01-01T01:21:08;2.30;;;2.20;;
4409;SDS011;2218;51.408;7.208;2023-01-01T01:23:36;2.47;;;2.27;;
4409;SDS011;2218;51.408;7.208;2023-01-01T01:26:06;2.10;;;2.00;;
4409;SDS011;2218;51.408;7.208;2023-01-01T01:28:36;2.07;;;1.97;;
4409;SDS011;2218;51.408;7.208;2023-01-01T01:31:03;2.33;;;2.20;;
4409;SDS011;2218;51.408;7.208;2023-01-01T01:33:30;2.33;;;2.23;;
4409;SDS011;2218;51.408;7.208;2023-01-01T01:35:57;2.70;;;2.50;;
4409;SDS011;2218;51.408;7.208;2023-01-01T01:38:24;2.60;;;2.40;;
4409;SDS011;2218;51.408;7.208;2023-01-01T01:40:51;2.50;;;2.33;;
4409;SDS011;2218;51.408;7.208;2023-01-01T01:43:20;2.70;;;2.50;;
4409;SDS011;2218;51.408;7.208;2023-01-01T01:45:53;2.53;;;2.40;;
4409;SDS011;2218;51.408;7.208;2023-01-01T01:48:25;2.20;;;2.10;;
4409;SDS011;2218;51.408;7.208;2023-01-01T01:50:52;2.37;;;2.17;;
4409;SDS011;2218;51.408;7.208;2023-01-01T01:53:21;2.43;;;2.23;;
4409;SDS011;2218;51.408;7.208;2023-01-01T01:55:52;2.63;;;2.43;;
4409;SDS011;2218;51.408;7.208;2023-01-01T01:58:25;2.97;;;2.67;;
4409;SDS011;2218;51.408;7.208;2023-01-01T02:00:57;2.77;;;2.57;;
4409;SDS011;2218;51.408;7.208;2023-01-01T02:03:26;2.70;;;2.43;;
4409;SDS011;2218;51.408;7.208;2023-01-01T02:06:03;2.43;;;2.23;;
4409;SDS011;2218;51.408;7.208;2023-01-01T02:08:31;2.67;;;2.47;;
4409;SDS011;2218;51.408;7.208;2023-01-01T02:11:00;2.57;;;2.37;;
4409;SDS011;2218;51.408;7.208;2023-01-01T02:13:27;2.30;;;2.10;;
4409;SDS011;2218;51.408;7.208;2023-01-01T02:15:56;2.50;;;2.33;;
4409;SDS011;2218;51.408;7.208;2023-01-01T02:18:35;2.37;;;2.17;;
4409;SDS011;2218;51.408;7.208;2023-01-01T02:21:11;2.60;;;2.50;;
4409;SDS011;2218;51.408;7.208;2023-01-01T02:23:50;2.50;;;2.30;;
4409;SDS011;2218;51.408;7.208;2023-01-01T02:26:42;2.70;;;2.50;;
4409;SDS011;2218;51.408;7.208;2023-01-01T02:29:27;2.43;;;2.23;;
4409;SDS011;2218;51.408;7.208;2023-01-01T02:32:05;2.80;;;2.60;;
4409;SDS011;2218;51.408;7.208;2023-01-01T02:34:38;2.10;;;2.00;;
4409;SDS011;2218;51.408;7.208;2023-01-01T02:37:10;2.60;;;2.40;;
4409;SDS011;2218;51.408;7.208;2023-01-01T02:39:42;2.30;;;2.20;;
4409;SDS011;2218;51.408;7.208;2023-01-01T02:42:16;3.77;;;2.50;;
4409;SDS011;2218;51.408;7.208;2023-01-01T02:44:47;2.40;;;2.20;;
4409;SDS011;2218;51.408;7.208;2023-01-01T02:47:19;2.30;;;2.20;;
4409;SDS011;2218;51.408;7.208;2023-01-01T02:49:49;1.90;;;1.80;;
4409;SDS011;2218;51.408;7.208;2023-01-01T02:52:35;2.27;;;2.07;;
4409;SDS011;2218;51.408;7.208;2023-01-01T02:55:20;2.30;;;2.20;;
4409;SDS011;2218;51.408;7.208;2023-01-01T02:58:03;2.60;;;2.40;;
4409;SDS011;2218;51.408;7.208;2023-01-01T03:01:01;2.57;;;2.47;;
4409;SDS011;2218;51.408;7.208;2023-01-01T03:03:38;1.87;;;1.77;;
4409;SDS011;2218;51.408;7.208;2023-01-01T03:06:14;1.77;;;1.67;;
4409;SDS011;2218;51.408;7.208;2023-01-01T03:08:55;1.90;;;1.80;;
4409;SDS011;2218;51.408;7.208;2023-01-01T03:11:36;2.13;;;2.03;;
4409;SDS011;2218;51.408;7.208;2023-01-01T03:14:14;2.37;;;2.17;;
4409;SDS011;2218;51.408;7.208;2023-01-01T03:16:52;1.93;;;1.83;;
4409;SDS011;2218;51.408;7.208;2023-01-01T03:19:29;2.27;;;2.17;;
4409;SDS011;2218;51.408;7.208;2023-01-01T03:22:03;2.00;;;1.90;;
4409;SDS011;2218;51.408;7.208;2023-01-01T03:24:35;2.03;;;1.83;;
4409;SDS011;2218;51.408;7.208;2023-01-01T03:27:11;1.93;;;1.83;;
4409;SDS011;2218;51.408;7.208;2023-01-01T03:29:44;2.17;;;1.70;;
4409;SDS011;2218;51.408;7.208;2023-01-01T03:32:18;1.80;;;1.70;;
4409;SDS011;2218;51.408;7.208;2023-01-01T03:35:12;1.57;;;1.47;;
4409;SDS011;2218;51.408;7.208;2023-01-01T03:37:43;2.00;;;1.90;;
4409;SDS011;2218;51.408;7.208;2023-01-01T03:40:16;1.70;;;1.60;;
4409;SDS011;2218;51.408;7.208;2023-01-01T03:42:47;2.07;;;1.97;;
4409;SDS011;2218;51.408;7.208;2023-01-01T03:45:21;1.83;;;1.37;;
4409;SDS011;2218;51.408;7.208;2023-01-01T03:47:54;1.60;;;1.50;;
4409;SDS011;2218;51.408;7.208;2023-01-01T03:50:23;1.90;;;1.73;;
4409;SDS011;2218;51.408;7.208;2023-01-01T03:53:07;1.80;;;1.70;;
4409;SDS011;2218;51.408;7.208;2023-01-01T03:55:48;1.87;;;1.77;;
4409;SDS011;2218;51.408;7.208;2023-01-01T03:58:30;1.50;;;1.40;;
4409;SDS011;2218;51.408;7.208;2023-01-01T04:01:07;1.50;;;1.40;;
4409;SDS011;2218;51.408;7.208;2023-01-01T04:03:42;1.63;;;1.53;;
4409;SDS011;2218;51.408;7.208;2023-01-01T04:06:10;1.50;;;1.40;;
4409;SDS011;2218;51.408;7.208;2023-01-01T04:08:37;1.30;;;1.20;;
4409;SDS011;2218;51.408;7.208;2023-01-01T04:11:05;1.23;;;1.13;;
4409;SDS011;2218;51.408;7.208;2023-01-01T04:13:59;1.60;;;1.50;;
4409;SDS011;2218;51.408;7.208;2023-01-01T04:16:26;1.37;;;1.27;;
4409;SDS011;2218;51.408;7.208;2023-01-01T04:18:55;1.43;;;1.10;;
4409;SDS011;2218;51.408;7.208;2023-01-01T04:21:22;1.60;;;1.50;;
4409;SDS011;2218;51.408;7.208;2023-01-01T04:23:49;1.13;;;1.03;;
4409;SDS011;2218;51.408;7.208;2023-01-01T04:26:16;1.33;;;1.23;;
4409;SDS011;2218;51.408;7.208;2023-01-01T04:28:43;1.60;;;1.43;;
4409;SDS011;2218;51.408;7.208;2023-01-01T04:31:10;1.40;;;1.30;;
4409;SDS011;2218;51.408;7.208;2023-01-01T04:33:37;1.10;;;1.00;;
4409;SDS011;2218;51.408;7.208;2023-01-01T04:36:07;1.33;;;1.23;;
4409;SDS011;2218;51.408;7.208;2023-01-01T04:38:35;0.90;;;0.90;;
4409;SDS011;2218;51.408;7.208;2023-01-01T04:41:03;1.10;;;1.00;;
4409;SDS011;2218;51.408;7.208;2023-01-01T04:43:31;1.47;;;1.33;;
4409;SDS011;2218;51.408;7.208;2023-01-01T04:45:58;1.00;;;0.90;;
4409;SDS011;2218;51.408;7.208;2023-01-01T04:48:27;1.20;;;1.10;;
4409;SDS011;2218;51.408;7.208;2023-01-01T04:50:56;1.10;;;1.00;;
4409;SDS011;2218;51.408;7.208;2023-01-01T04:53:29;1.53;;;1.30;;
4409;SDS011;2218;51.408;7.208;2023-01-01T04:56:01;1.07;;;0.97;;
4409;SDS011;2218;51.408;7.208;2023-01-01T04:58:30;1.10;;;1.00;;
4409;SDS011;2218;51.408;7.208;2023-01-01T05:00:58;1.30;;;1.20;;
4409;SDS011;2218;51.408;7.208;2023-01-01T05:03:25;1.10;;;1.00;;
4409;SDS011;2218;51.408;7.208;2023-01-01T05:05:58;1.17;;;1.03;;
4409;SDS011;2218;51.408;7.208;2023-01-01T05:08:26;0.80;;;0.80;;
4409;SDS011;2218;51.408;7.208;2023-01-01T05:10:59;0.90;;;0.90;;
4409;SDS011;2218;51.408;7.208;2023-01-01T05:13:26;1.30;;;1.20;;
4409;SDS011;2218;51.408;7.208;2023-01-01T05:15:53;0.90;;;0.90;;
4409;SDS011;2218;51.408;7.208;2023-01-01T05:18:21;1.00;;;0.90;;
4409;SDS011;2218;51.408;7.208;2023-01-01T05:20:48;1.00;;;0.90;;
4409;SDS011;2218;51.408;7.208;2023-01-01T05:23:15;0.97;;;0.87;;
4409;SDS011;2218;51.408;7.208;2023-01-01T05:25:43;1.50;;;1.10;;
4409;SDS011;2218;51.408;7.208;2023-01-01T05:28:11;1.00;;;1.00;;
4409;SDS011;2218;51.408;7.208;2023-01-01T05:30:38;1.17;;;1.07;;
4409;SDS011;2218;51.408;7.208;2023-01-01T05:33:05;0.87;;;0.87;;
4409;SDS011;2218;51.408;7.208;2023-01-01T05:35:32;1.10;;;1.00;;
4409;SDS011;2218;51.408;7.208;2023-01-01T05:37:59;0.80;;;0.80;;
4409;SDS011;2218;51.408;7.208;2023-01-01T05:40:28;1.00;;;0.90;;
4409;SDS011;2218;51.408;7.208;2023-01-01T05:42:56;0.90;;;0.90;;
4409;SDS011;2218;51.408;7.208;2023-01-01T05:45:23;1.07;;;0.80;;
4409;SDS011;2218;51.408;7.208;2023-01-01T05:47:50;0.80;;;0.70;;
4409;SDS011;2218;51.408;7.208;2023-01-01T05:50:17;1.10;;;1.00;;
4409;SDS011;2218;51.408;7.208;2023-01-01T05:52:44;0.77;;;0.77;;
4409;SDS011;2218;51.408;7.208;2023-01-01T05:55:10;1.30;;;0.97;;
4409;SDS011;2218;51.408;7.208;2023-01-01T05:57:37;1.07;;;0.80;;
4409;SDS011;2218;51.408;7.208;2023-01-01T06:00:06;0.80;;;0.77;;
4409;SDS011;2218;51.408;7.208;2023-01-01T06:02:35;0.80;;;0.70;;
4409;SDS011;2218;51.408;7.208;2023-01-01T06:05:03;0.80;;;0.60;;
4409;SDS011;2218;51.408;7.208;2023-01-01T06:07:31;0.70;;;0.60;;
4409;SDS011;2218;51.408;7.208;2023-01-01T06:09:58;0.70;;;0.60;;
4409;SDS011;2218;51.408;7.208;2023-01-01T06:12:24;0.80;;;0.70;;
4409;SDS011;2218;51.408;7.208;2023-01-01T06:14:51;1.03;;;0.70;;
4409;SDS011;2218;51.408;7.208;2023-01-01T06:17:19;1.20;;;0.77;;
4409;SDS011;2218;51.408;7.208;2023-01-01T06:19:46;1.23;;;0.90;;
4409;SDS011;2218;51.408;7.208;2023-01-01T06:22:13;0.80;;;0.80;;
4409;SDS011;2218;51.408;7.208;2023-01-01T06:24:40;0.80;;;0.73;;
4409;SDS011;2218;51.408;7.208;2023-01-01T06:27:07;1.03;;;0.73;;
4409;SDS011;2218;51.408;7.208;2023-01-01T06:29:34;0.90;;;0.80;;
4409;SDS011;2218;51.408;7.208;2023-01-01T06:32:01;0.70;;;0.60;;
4409;SDS011;2218;51.408;7.208;2023-01-01T06:34:29;0.90;;;0.80;;
4409;SDS011;2218;51.408;7.208;2023-01-01T06:36:56;1.40;;;0.70;;
4409;SDS011;2218;51.408;7.208;2023-01-01T06:39:23;0.90;;;0.70;;
4409;SDS011;2218;51.408;7.208;2023-01-01T06:41:50;0.80;;;0.57;;
4409;SDS011;2218;51.408;7.208;2023-01-01T06:44:16;0.70;;;0.60;;
4409;SDS011;2218;51.408;7.208;2023-01-01T06:46:43;1.00;;;0.80;;
4409;SDS011;2218;51.408;7.208;2023-01-01T06:49:10;0.70;;;0.60;;
4409;SDS011;2218;51.408;7.208;2023-01-01T06:51:39;0.90;;;0.60;;
4409;SDS011;2218;51.408;7.208;2023-01-01T06:54:08;0.80;;;0.70;;
4409;SDS011;2218;51.408;7.208;2023-01-01T06:56:36;0.90;;;0.80;;
4409;SDS011;2218;51.408;7.208;2023-01-01T06:59:03;1.03;;;0.93;;
4409;SDS011;2218;51.408;7.208;2023-01-01T07:01:31;0.70;;;0.50;;
4409;SDS011;2218;51.408;7.208;2023-01-01T07:04:01;0.80;;;0.70;;
4409;SDS011;2218;51.408;7.208;2023-01-01T07:06:30;0.70;;;0.70;;
4409;SDS011;2218;51.408;7.208;2023-01-01T07:08:59;0.90;;;0.70;;
4409;SDS011;2218;51.408;7.208;2023-01-01T07:11:27;1.07;;;0.80;;
4409;SDS011;2218;51.408;7.208;2023-01-01T07:13:54;0.80;;;0.70;;
4409;SDS011;2218;51.408;7.208;2023-01-01T07:16:22;0.80;;;0.70;;
4409;SDS011;2218;51.408;7.208;2023-01-01T07:18:49;0.90;;;0.70;;
4409;SDS011;2218;51.408;7.208;2023-01-01T07:21:25;1.87;;;0.70;;
4409;SDS011;2218;51.408;7.208;2023-01-01T07:23:56;0.80;;;0.80;;
4409;SDS011;2218;51.408;7.208;2023-01-01T07:26:26;0.80;;;0.80;;
4409;SDS011;2218;51.408;7.208;2023-01-01T07:28:54;0.70;;;0.60;;
4409;SDS011;2218;51.408;7.208;2023-01-01T07:31:22;0.70;;;0.60;;
4409;SDS011;2218;51.408;7.208;2023-01-01T07:33:48;1.17;;;0.67;;
4409;SDS011;2218;51.408;7.208;2023-01-01T07:36:15;1.20;;;0.87;;
4409;SDS011;2218;51.408;7.208;2023-01-01T07:38:42;0.70;;;0.50;;
4409;SDS011;2218;51.408;7.208;2023-01-01T07:41:09;0.80;;;0.60;;
4409;SDS011;2218;51.408;7.208;2023-01-01T07:43:38;0.80;;;0.70;;
4409;SDS011;2218;51.408;7.208;2023-01-01T07:46:04;0.70;;;0.60;;
4409;SDS011;2218;51.408;7.208;2023-01-01T07:48:31;0.80;;;0.70;;
4409;SDS011;2218;51.408;7.208;2023-01-01T07:50:58;0.80;;;0.70;;
4409;SDS011;2218;51.408;7.208;2023-01-01T07:53:25;0.70;;;0.60;;
4409;SDS011;2218;51.408;7.208;2023-01-01T07:55:52;0.73;;;0.73;;
4409;SDS011;2218;51.408;7.208;2023-01-01T07:58:19;0.80;;;0.70;;
4409;SDS011;2218;51.408;7.208;2023-01-01T08:00:48;0.77;;;0.67;;
4409;SDS011;2218;51.408;7.208;2023-01-01T08:03:15;1.00;;;0.70;;
4409;SDS011;2218;51.408;7.208;2023-01-01T08:05:42;1.10;;;0.70;;
4409;SDS011;2218;51.408;7.208;2023-01-01T08:08:09;0.80;;;0.70;;
4409;SDS011;2218;51.408;7.208;2023-01-01T08:10:37;0.70;;;0.50;;
4409;SDS011;2218;51.408;7.208;2023-01-01T08:13:04;1.10;;;0.53;;
4409;SDS011;2218;51.408;7.208;2023-01-01T08:15:33;1.00;;;0.83;;
4409;SDS011;2218;51.408;7.208;2023-01-01T08:18:02;0.77;;;0.60;;
4409;SDS011;2218;51.408;7.208;2023-01-01T08:20:31;0.70;;;0.60;;
4409;SDS011;2218;51.408;7.208;2023-01-01T08:23:00;0.70;;;0.50;;
4409;SDS011;2218;51.408;7.208;2023-01-01T08:25:27;0.73;;;0.60;;
4409;SDS011;2218;51.408;7.208;2023-01-01T08:27:54;0.90;;;0.70;;
4409;SDS011;2218;51.408;7.208;2023-01-01T08:30:21;0.70;;;0.60;;
4409;SDS011;2218;51.408;7.208;2023-01-01T08:32:48;0.70;;;0.50;;
4409;SDS011;2218;51.408;7.208;2023-01-01T08:35:16;0.70;;;0.70;;
4409;SDS011;2218;51.408;7.208;2023-01-01T08:37:43;1.13;;;0.60;;
4409;SDS011;2218;51.408;7.208;2023-01-01T08:40:10;0.80;;;0.50;;
4409;SDS011;2218;51.408;7.208;2023-01-01T08:42:40;0.70;;;0.50;;
4409;SDS011;2218;51.408;7.208;2023-01-01T08:45:07;0.80;;;0.70;;
4409;SDS011;2218;51.408;7.208;2023-01-01T08:47:35;0.60;;;0.50;;
4409;SDS011;2218;51.408;7.208;2023-01-01T08:50:02;0.70;;;0.60;;
4409;SDS011;2218;51.408;7.208;2023-01-01T08:52:31;0.80;;;0.73;;
4409;SDS011;2218;51.408;7.208;2023-01-01T08:54:58;0.80;;;0.50;;
4409;SDS011;2218;51.408;7.208;2023-01-01T08:57:25;0.80;;;0.60;;
4409;SDS011;2218;51.408;7.208;2023-01-01T08:59:55;0.70;;;0.60;;
4409;SDS011;2218;51.408;7.208;2023-01-01T09:02:22;0.70;;;0.60;;
4409;SDS011;2218;51.408;7.208;2023-01-01T09:04:50;0.70;;;0.57;;
4409;SDS011;2218;51.408;7.208;2023-01-01T09:07:17;0.70;;;0.60;;
4409;SDS011;2218;51.408;7.208;2023-01-01T09:09:45;0.70;;;0.50;;
4409;SDS011;2218;51.408;7.208;2023-01-01T09:12:13;0.70;;;0.60;;
4409;SDS011;2218;51.408;7.208;2023-01-01T09:14:41;0.70;;;0.50;;
4409;SDS011;2218;51.408;7.208;2023-01-01T09:17:11;0.80;;;0.70;;
4409;SDS011;2218;51.408;7.208;2023-01-01T09:19:38;0.70;;;0.60;;
4409;SDS011;2218;51.408;7.208;2023-01-01T09:22:07;0.70;;;0.50;;
4409;SDS011;2218;51.408;7.208;2023-01-01T09:24:35;0.70;;;0.60;;
4409;SDS011;2218;51.408;7.208;2023-01-01T09:27:03;0.80;;;0.60;;
4409;SDS011;2218;51.408;7.208;2023-01-01T09:29:31;0.80;;;0.70;;
4409;SDS011;2218;51.408;7.208;2023-01-01T09:31:58;0.70;;;0.50;;
4409;SDS011;2218;51.408;7.208;2023-01-01T09:34:25;0.77;;;0.70;;
4409;SDS011;2218;51.408;7.208;2023-01-01T09:36:52;0.70;;;0.60;;
4409;SDS011;2218;51.408;7.208;2023-01-01T09:39:18;0.70;;;0.60;;
4409;SDS011;2218;51.408;7.208;2023-01-01T09:41:49;0.80;;;0.60;;
4409;SDS011;2218;51.408;7.208;2023-01-01T09:44:52;1.60;;;0.60;;
4409;SDS011;2218;51.408;7.208;2023-01-01T09:47:33;0.70;;;0.50;;
4409;SDS011;2218;51.408;7.208;2023-01-01T09:50:06;0.80;;;0.63;;
4409;SDS011;2218;51.408;7.208;2023-01-01T09:52:40;0.70;;;0.50;;
4409;SDS011;2218;51.408;7.208;2023-01-01T09:55:18;0.70;;;0.60;;
4409;SDS011;2218;51.408;7.208;2023-01-01T09:57:54;0.70;;;0.50;;
4409;SDS011;2218;51.408;7.208;2023-01-01T10:00:22;0.80;;;0.60;;
4409;SDS011;2218;51.408;7.208;2023-01-01T10:03:05;0.90;;;0.90;;
4409;SDS011;2218;51.408;7.208;2023-01-01T10:05:53;0.67;;;0.57;;
4409;SDS011;2218;51.408;7.208;2023-01-01T10:08:33;0.80;;;0.67;;
4409;SDS011;2218;51.408;7.208;2023-01-01T10:11:16;0.97;;;0.60;;
4409;SDS011;2218;51.408;7.208;2023-01-01T10:13:54;0.60;;;0.50;;
4409;SDS011;2218;51.408;7.208;2023-01-01T10:16:28;0.70;;;0.50;;
4409;SDS011;2218;51.408;7.208;2023-01-01T10:19:04;0.80;;;0.60;;
4409;SDS011;2218;51.408;7.208;2023-01-01T10:21:47;0.70;;;0.60;;
4409;SDS011;2218;51.408;7.208;2023-01-01T10:24:24;0.70;;;0.60;;
4409;SDS011;2218;51.408;7.208;2023-01-01T10:27:02;0.73;;;0.60;;
4409;SDS011;2218;51.408;7.208;2023-01-01T10:29:34;0.70;;;0.53;;
4409;SDS011;2218;51.408;7.208;2023-01-01T10:32:14;0.70;;;0.60;;
4409;SDS011;2218;51.408;7.208;2023-01-01T10:34:45;0.70;;;0.60;;
4409;SDS011;2218;51.408;7.208;2023-01-01T10:37:15;0.70;;;0.60;;
4409;SDS011;2218;51.408;7.208;2023-01-01T10:39:42;0.70;;;0.40;;
4409;SDS011;2218;51.408;7.208;2023-01-01T10:42:12;0.80;;;0.60;;
4409;SDS011;2218;51.408;7.208;2023-01-01T10:44:42;0.70;;;0.50;;
4409;SDS011;2218;51.408;7.208;2023-01-01T10:47:18;0.93;;;0.60;;
4409;SDS011;2218;51.408;7.208;2023-01-01T10:49:54;0.70;;;0.50;;
4409;SDS011;2218;51.408;7.208;2023-01-01T10:52:24;0.83;;;0.70;;
4409;SDS011;2218;51.408;7.208;2023-01-01T10:54:56;0.70;;;0.50;;
4409;SDS011;2218;51.408;7.208;2023-01-01T10:57:28;0.70;;;0.70;;
4409;SDS011;2218;51.408;7.208;2023-01-01T11:00:10;0.70;;;0.60;;
4409;SDS011;2218;51.408;7.208;2023-01-01T11:02:47;0.70;;;0.57;;
4409;SDS011;2218;51.408;7.208;2023-01-01T11:05:36;0.70;;;0.60;;
4409;SDS011;2218;51.408;7.208;2023-01-01T11:08:03;0.80;;;0.60;;
4409;SDS011;2218;51.408;7.208;2023-01-01T11:10:48;0.70;;;0.57;;
4409;SDS011;2218;51.408;7.208;2023-01-01T11:13:17;0.80;;;0.60;;
4409;SDS011;2218;51.408;7.208;2023-01-01T11:15:47;0.70;;;0.60;;
4409;SDS011;2218;51.408;7.208;2023-01-01T11:18:15;0.60;;;0.40;;
4409;SDS011;2218;51.408;7.208;2023-01-01T11:20:51;0.70;;;0.60;;
4409;SDS011;2218;51.408;7.208;2023-01-01T11:23:28;0.70;;;0.60;;
4409;SDS011;2218;51.408;7.208;2023-01-01T11:26:00;0.70;;;0.60;;
4409;SDS011;2218;51.408;7.208;2023-01-01T11:28:31;0.70;;;0.50;;
4409;SDS011;2218;51.408;7.208;2023-01-01T11:31:03;0.60;;;0.40;;
4409;SDS011;2218;51.408;7.208;2023-01-01T11:33:42;1.07;;;0.57;;
4409;SDS011;2218;51.408;7.208;2023-01-01T11:36:21;0.80;;;0.60;;
4409;SDS011;2218;51.408;7.208;2023-01-01T11:38:51;0.70;;;0.50;;
4409;SDS011;2218;51.408;7.208;2023-01-01T11:41:40;0.70;;;0.50;;
4409;SDS011;2218;51.408;7.208;2023-01-01T11:44:10;1.37;;;0.60;;
4409;SDS011;2218;51.408;7.208;2023-01-01T11:46:51;0.70;;;0.50;;
4409;SDS011;2218;51.408;7.208;2023-01-01T11:49:20;0.80;;;0.80;;
4409;SDS011;2218;51.408;7.208;2023-01-01T11:51:53;0.77;;;0.60;;
4409;SDS011;2218;51.408;7.208;2023-01-01T11:54:24;0.70;;;0.50;;
4409;SDS011;2218;51.408;7.208;2023-01-01T11:57:01;0.80;;;0.50;;
4409;SDS011;2218;51.408;7.208;2023-01-01T11:59:41;0.70;;;0.60;;
4409;SDS011;2218;51.408;7.208;2023-01-01T12:02:16;0.70;;;0.50;;
4409;SDS011;2218;51.408;7.208;2023-01-01T12:04:56;1.57;;;0.50;;
4409;SDS011;2218;51.408;7.208;2023-01-01T12:07:35;1.07;;;0.60;;
4409;SDS011;2218;51.408;7.208;2023-01-01T12:10:08;0.80;;;0.57;;
4409;SDS011;2218;51.408;7.208;2023-01-01T12:12:47;0.70;;;0.50;;
4409;SDS011;2218;51.408;7.208;2023-01-01T12:15:23;0.70;;;0.50;;
4409;SDS011;2218;51.408;7.208;2023-01-01T12:18:02;0.70;;;0.50;;
4409;SDS011;2218;51.408;7.208;2023-01-01T12:20:41;0.80;;;0.60;;
4409;SDS011;2218;51.408;7.208;2023-01-01T12:23:14;0.97;;;0.70;;
4409;SDS011;2218;51.408;7.208;2023-01-01T12:25:45;1.03;;;0.70;;
4409;SDS011;2218;51.408;7.208;2023-01-01T12:28:25;0.70;;;0.50;;
4409;SDS011;2218;51.408;7.208;2023-01-01T12:31:03;0.70;;;0.50;;
4409;SDS011;2218;51.408;7.208;2023-01-01T12:33:49;0.70;;;0.50;;
4409;SDS011;2218;51.408;7.208;2023-01-01T12:36:32;0.70;;;0.60;;
4409;SDS011;2218;51.408;7.208;2023-01-01T12:42:44;0.70;;;0.50;;
4409;SDS011;2218;51.408;7.208;2023-01-01T12:45:29;0.90;;;0.50;;
4409;SDS011;2218;51.408;7.208;2023-01-01T12:48:29;0.70;;;0.40;;
4409;SDS011;2218;51.408;7.208;2023-01-01T12:51:40;0.70;;;0.50;;
4409;SDS011;2218;51.408;7.208;2023-01-01T12:54:30;0.70;;;0.50;;
4409;SDS011;2218;51.408;7.208;2023-01-01T12:57:42;1.17;;;0.60;;
4409;SDS011;2218;51.408;7.208;2023-01-01T13:00:20;0.93;;;0.60;;
4409;SDS011;2218;51.408;7.208;2023-01-01T13:02:48;0.70;;;0.50;;
4409;SDS011;2218;51.408;7.208;2023-01-01T13:05:21;0.70;;;0.60;;
4409;SDS011;2218;51.408;7.208;2023-01-01T13:07:57;0.70;;;0.50;;
4409;SDS011;2218;51.408;7.208;2023-01-01T13:10:29;0.70;;;0.60;;
4409;SDS011;2218;51.408;7.208;2023-01-01T13:13:00;0.70;;;0.50;;
4409;SDS011;2218;51.408;7.208;2023-01-01T13:18:20;0.60;;;0.50;;
4409;SDS011;2218;51.408;7.208;2023-01-01T13:20:55;0.70;;;0.50;;
4409;SDS011;2218;51.408;7.208;2023-01-01T13:23:43;0.70;;;0.50;;
4409;SDS011;2218;51.408;7.208;2023-01-01T13:26:29;1.10;;;0.60;;
4409;SDS011;2218;51.408;7.208;2023-01-01T13:32:01;0.70;;;0.53;;
4409;SDS011;2218;51.408;7.208;2023-01-01T13:34:35;0.70;;;0.60;;
4409;SDS011;2218;51.408;7.208;2023-01-01T13:37:41;0.90;;;0.60;;
4409;SDS011;2218;51.408;7.208;2023-01-01T13:43:19;0.70;;;0.50;;
4409;SDS011;2218;51.408;7.208;2023-01-01T13:45:55;0.60;;;0.50;;
4409;SDS011;2218;51.408;7.208;2023-01-01T13:48:51;0.80;;;0.57;;
4409;SDS011;2218;51.408;7.208;2023-01-01T13:51:47;0.70;;;0.60;;
4409;SDS011;2218;51.408;7.208;2023-01-01T14:01:36;0.70;;;0.50;;
4409;SDS011;2218;51.408;7.208;2023-01-01T14:04:35;0.80;;;0.60;;
4409;SDS011;2218;51.408;7.208;2023-01-01T14:07:20;0.70;;;0.57;;
4409;SDS011;2218;51.408;7.208;2023-01-01T14:10:18;0.70;;;0.60;;
4409;SDS011;2218;51.408;7.208;2023-01-01T14:12:50;0.80;;;0.60;;
4409;SDS011;2218;51.408;7.208;2023-01-01T14:15:24;0.90;;;0.60;;
4409;SDS011;2218;51.408;7.208;2023-01-01T14:17:55;0.70;;;0.50;;
4409;SDS011;2218;51.408;7.208;2023-01-01T14:20:29;0.70;;;0.50;;
4409;SDS011;2218;51.408;7.208;2023-01-01T14:23:03;0.70;;;0.50;;
4409;SDS011;2218;51.408;7.208;2023-01-01T14:25:35;0.80;;;0.60;;
4409;SDS011;2218;51.408;7.208;2023-01-01T14:28:02;0.70;;;0.50;;
4409;SDS011;2218;51.408;7.208;2023-01-01T14:30:31;0.70;;;0.60;;
4409;SDS011;2218;51.408;7.208;2023-01-01T14:33:00;0.90;;;0.60;;
4409;SDS011;2218;51.408;7.208;2023-01-01T14:35:28;0.70;;;0.60;;
4409;SDS011;2218;51.408;7.208;2023-01-01T14:37:55;0.70;;;0.53;;
4409;SDS011;2218;51.408;7.208;2023-01-01T14:40:23;1.00;;;0.60;;
4409;SDS011;2218;51.408;7.208;2023-01-01T14:42:53;0.80;;;0.53;;
4409;SDS011;2218;51.408;7.208;2023-01-01T14:45:26;0.80;;;0.50;;
4409;SDS011;2218;51.408;7.208;2023-01-01T14:47:56;0.70;;;0.50;;
4409;SDS011;2218;51.408;7.208;2023-01-01T14:50:26;0.70;;;0.60;;
4409;SDS011;2218;51.408;7.208;2023-01-01T14:53:00;0.70;;;0.50;;
4409;SDS011;2218;51.408;7.208;2023-01-01T14:55:32;0.90;;;0.60;;
4409;SDS011;2218;51.408;7.208;2023-01-01T14:58:05;0.70;;;0.40;;
4409;SDS011;2218;51.408;7.208;2023-01-01T15:00:40;0.70;;;0.60;;
4409;SDS011;2218;51.408;7.208;2023-01-01T15:03:12;0.90;;;0.70;;
4409;SDS011;2218;51.408;7.208;2023-01-01T15:05:42;0.70;;;0.50;;
4409;SDS011;2218;51.408;7.208;2023-01-01T15:08:17;0.70;;;0.53;;
4409;SDS011;2218;51.408;7.208;2023-01-01T15:10:47;0.70;;;0.50;;
4409;SDS011;2218;51.408;7.208;2023-01-01T15:13:16;0.80;;;0.70;;
4409;SDS011;2218;51.408;7.208;2023-01-01T15:15:46;0.70;;;0.60;;
4409;SDS011;2218;51.408;7.208;2023-01-01T15:21:11;0.70;;;0.63;;
4409;SDS011;2218;51.408;7.208;2023-01-01T15:23:45;0.70;;;0.60;;
4409;SDS011;2218;51.408;7.208;2023-01-01T15:26:23;0.70;;;0.60;;
4409;SDS011;2218;51.408;7.208;2023-01-01T15:28:54;1.07;;;0.60;;
4409;SDS011;2218;51.408;7.208;2023-01-01T15:31:32;0.70;;;0.60;;
4409;SDS011;2218;51.408;7.208;2023-01-01T15:34:04;0.70;;;0.50;;
4409;SDS011;2218;51.408;7.208;2023-01-01T15:36:31;0.70;;;0.50;;
4409;SDS011;2218;51.408;7.208;2023-01-01T15:38:59;0.70;;;0.60;;
4409;SDS011;2218;51.408;7.208;2023-01-01T15:41:36;0.70;;;0.53;;
4409;SDS011;2218;51.408;7.208;2023-01-01T15:47:04;0.70;;;0.60;;
4409;SDS011;2218;51.408;7.208;2023-01-01T15:49:41;0.70;;;0.60;;
4409;SDS011;2218;51.408;7.208;2023-01-01T15:52:13;0.70;;;0.50;;
4409;SDS011;2218;51.408;7.208;2023-01-01T15:54:49;0.70;;;0.50;;
4409;SDS011;2218;51.408;7.208;2023-01-01T15:57:16;0.80;;;0.57;;
4409;SDS011;2218;51.408;7.208;2023-01-01T15:59:47;0.70;;;0.50;;
4409;SDS011;2218;51.408;7.208;2023-01-01T16:02:19;0.70;;;0.63;;
4409;SDS011;2218;51.408;7.208;2023-01-01T16:04:53;0.73;;;0.60;;
4409;SDS011;2218;51.408;7.208;2023-01-01T16:07:21;0.90;;;0.60;;
4409;SDS011;2218;51.408;7.208;2023-01-01T16:09:51;1.20;;;0.50;;
4409;SDS011;2218;51.408;7.208;2023-01-01T16:12:19;0.70;;;0.50;;